Чимкент

Карта отелей и гостиниц, располагающихся рядом с аэропортом Чимкент :

Чимкент Южно-Казахстанская область 42° 21' 54.2988" N, 69° 28' 31.5012" E
Код аэродрома ИКАО
UAII
Код аэродрома RU
УАИИ
Координаты
N42.36508° E069.47542°
Превышение над уровнем моря
422
Основная полоса
10L/28R
Курс магнитный
100,8/280,8
Длина основной ВПП
3300
Ширина основной ВПП
45
Покрытие основной ВПП
Твёрдое (бетон)
Освещение ВПП
Постоянное
Тип: 
Аэродром
Класс аэродрома: 
Международный
Принадлежность: 
ГА
Статус: 
Действующий
Сайт: 
http://www.airserver.kz/
Страна: 
Казахстан
Регион: 
Южно-Казахстанская область
Дополнительная информация: 
Эксплуатант: АО «Аэропорт Шымкент». Совместного использования. Базируются: АО “Аэропорт Шымкент”, АО Авиакомпания «SCAT», Шымкентский филиал РГП "Казаэронавигация", Шымкентское представительство АО «Казаэросервис». Также используется военной авиацией. Аэродром 1 класса, пригоден для приёма ВС всех типов.
Погода: 

Авиационная погода в Чимкенте

Регион: 
Погода METAR: 
UAII 040530Z 28007MPS 9999 SCT050CB 36/08 Q0999 NOSIG RMK QFE712/0950
Время наблюдения
2022-07-04T05:30:00Z
Температура C
36.0
Точка росы
8.0
Направление ветра
280
Скорость ветра (узлы)
14
Метео видимость
6.21
Облачность
SCT
Нижняя граница облачности (футы)
5000
Явления погоды
Условия полета
VFR
Аэропорт подробнее: 
SCT – разбросанная отдельная облачность;

Найти трансфер

С помощью этой формы Вы можете найти трансфер из аэропорта Чимкент в город, аэропорт или вокзал:

Погода в аэропортах:

Авиационная погода в Мирном

Регион: 
Погода METAR: 
UERR 282200Z 06003MPS 0700 FG VV003 10/10 Q1000 R07/CLRD60 TEMPO 0300 FG VV001 RMK QBB070 QFE720/0960
Время наблюдения
2022-06-28T22:00:00Z
Температура C
10.0
Точка росы
10.0
Направление ветра
60
Скорость ветра (узлы)
6
Метео видимость
0.43
Облачность
OVX
Нижняя граница облачности (футы)
0
Явления погоды
FG
Условия полета
LIFR
Аэропорт подробнее: 
FG – туман (небо не видно, температура воздуха выше нуля или ноль);

Авиационная погода в Новокузнецке

Регион: 
Погода METAR: 
UNWW 282200Z 10001MPS 6000 0200S FG NSC 10/10 Q1008 R19/09//60 NOSIG RMK QFE729
Время наблюдения
2022-06-28T22:00:00Z
Температура C
10.0
Точка росы
10.0
Направление ветра
100
Скорость ветра (узлы)
2
Метео видимость
3.73
Облачность
CLR
Нижняя граница облачности (футы)
Явления погоды
FG
Условия полета
MVFR
Аэропорт подробнее: 
CLR — нет облаков ниже 3000 м
FG – туман (небо не видно, температура воздуха выше нуля или ноль);

Авиационная погода в Кокшетау

Регион: 
Погода METAR: 
UACK 040530Z 07006MPS 9999 -RA OVC074 14/12 Q0999 NOSIG RMK QFE725/0967
Время наблюдения
2022-07-04T05:30:00Z
Температура C
14.0
Точка росы
12.0
Направление ветра
70
Скорость ветра (узлы)
12
Метео видимость
6.21
Облачность
OVC
Нижняя граница облачности (футы)
7400
Явления погоды
-RA
Условия полета
VFR
Аэропорт подробнее: 
OVC – сплошная облачность;
-RA - слабый дождь;

Авиационная погода в Бухте Провидения

Погода METAR: 
UHMD 282200Z 20004MPS 2500 BR OVC003 06/05 Q1018 RMK QBB110 MT OBSC QFE763/1017
Время наблюдения
2022-06-28T22:00:00Z
Температура C
6.0
Точка росы
5.0
Направление ветра
200
Скорость ветра (узлы)
8
Метео видимость
1.55
Облачность
OVC
Нижняя граница облачности (футы)
300
Явления погоды
BR
Условия полета
LIFR
Аэропорт подробнее: 
OVC – сплошная облачность;
BR – дымка (видимость от 1 до 9 км);